sensor_id;sensor_type;location;lat;lon;timestamp;P1;durP1;ratioP1;P2;durP2;ratioP2
47758;SDS011;33520;55.122;35.582;2023-08-06T12:51:09;5.35;;;4.20;;
47758;SDS011;33520;55.122;35.582;2023-08-06T12:53:36;4.18;;;3.42;;
47758;SDS011;33520;55.122;35.582;2023-08-06T12:56:02;5.65;;;3.90;;
47758;SDS011;33520;55.122;35.582;2023-08-06T12:58:29;4.43;;;3.47;;
47758;SDS011;33520;55.122;35.582;2023-08-06T13:00:56;7.32;;;3.80;;
47758;SDS011;33520;55.122;35.582;2023-08-06T13:03:23;7.18;;;3.65;;
47758;SDS011;33520;55.122;35.582;2023-08-06T13:05:49;5.80;;;3.80;;
47758;SDS011;33520;55.122;35.582;2023-08-06T13:08:17;4.10;;;3.58;;
47758;SDS011;33520;55.122;35.582;2023-08-06T13:10:43;4.40;;;3.63;;
47758;SDS011;33520;55.122;35.582;2023-08-06T13:13:09;6.72;;;4.38;;
47758;SDS011;33520;55.122;35.582;2023-08-06T13:15:38;5.15;;;3.40;;
47758;SDS011;33520;55.122;35.582;2023-08-06T13:18:05;6.78;;;3.75;;
47758;SDS011;33520;55.122;35.582;2023-08-06T13:20:31;7.32;;;3.85;;
47758;SDS011;33520;55.122;35.582;2023-08-06T13:22:58;10.48;;;4.22;;
47758;SDS011;33520;55.122;35.582;2023-08-06T13:25:27;4.35;;;3.67;;
47758;SDS011;33520;55.122;35.582;2023-08-06T13:27:54;7.65;;;4.32;;
47758;SDS011;33520;55.122;35.582;2023-08-06T13:30:20;4.47;;;3.92;;
47758;SDS011;33520;55.122;35.582;2023-08-06T13:32:48;5.47;;;3.75;;
47758;SDS011;33520;55.122;35.582;2023-08-06T13:35:14;9.00;;;3.83;;
47758;SDS011;33520;55.122;35.582;2023-08-06T13:37:41;5.28;;;4.05;;
47758;SDS011;33520;55.122;35.582;2023-08-06T13:40:07;6.00;;;4.43;;
47758;SDS011;33520;55.122;35.582;2023-08-06T13:42:34;5.35;;;4.28;;
47758;SDS011;33520;55.122;35.582;2023-08-06T13:45:00;6.80;;;4.45;;
47758;SDS011;33520;55.122;35.582;2023-08-06T13:47:29;7.30;;;4.18;;
47758;SDS011;33520;55.122;35.582;2023-08-06T13:49:55;4.55;;;3.75;;
47758;SDS011;33520;55.122;35.582;2023-08-06T13:52:22;5.90;;;4.10;;
47758;SDS011;33520;55.122;35.582;2023-08-06T13:54:48;19.52;;;4.60;;
47758;SDS011;33520;55.122;35.582;2023-08-06T13:57:14;6.03;;;3.80;;
47758;SDS011;33520;55.122;35.582;2023-08-06T13:59:42;7.13;;;4.10;;
47758;SDS011;33520;55.122;35.582;2023-08-06T14:02:10;5.65;;;3.95;;
47758;SDS011;33520;55.122;35.582;2023-08-06T14:04:36;7.20;;;4.10;;
47758;SDS011;33520;55.122;35.582;2023-08-06T14:07:03;6.00;;;3.72;;
47758;SDS011;33520;55.122;35.582;2023-08-06T14:09:30;7.72;;;4.07;;
47758;SDS011;33520;55.122;35.582;2023-08-06T14:11:56;6.82;;;3.80;;
47758;SDS011;33520;55.122;35.582;2023-08-06T14:14:22;7.32;;;4.10;;
47758;SDS011;33520;55.122;35.582;2023-08-06T14:16:52;5.78;;;3.33;;
47758;SDS011;33520;55.122;35.582;2023-08-06T14:19:19;7.75;;;3.95;;
47758;SDS011;33520;55.122;35.582;2023-08-06T14:21:45;4.75;;;3.33;;
47758;SDS011;33520;55.122;35.582;2023-08-06T14:24:12;5.22;;;3.65;;
47758;SDS011;33520;55.122;35.582;2023-08-06T14:26:38;4.38;;;3.42;;
47758;SDS011;33520;55.122;35.582;2023-08-06T14:29:05;6.43;;;3.55;;
47758;SDS011;33520;55.122;35.582;2023-08-06T14:31:31;5.90;;;3.53;;
47758;SDS011;33520;55.122;35.582;2023-08-06T14:33:58;3.97;;;3.38;;
47758;SDS011;33520;55.122;35.582;2023-08-06T14:36:25;3.75;;;3.28;;
47758;SDS011;33520;55.122;35.582;2023-08-06T14:38:52;6.55;;;3.47;;
47758;SDS011;33520;55.122;35.582;2023-08-06T14:41:18;5.40;;;3.05;;
47758;SDS011;33520;55.122;35.582;2023-08-06T14:43:45;4.50;;;2.88;;
47758;SDS011;33520;55.122;35.582;2023-08-06T14:46:11;4.63;;;3.15;;
47758;SDS011;33520;55.122;35.582;2023-08-06T14:48:38;6.30;;;3.47;;
47758;SDS011;33520;55.122;35.582;2023-08-06T14:51:05;3.45;;;3.10;;
47758;SDS011;33520;55.122;35.582;2023-08-06T14:53:31;6.03;;;3.40;;
47758;SDS011;33520;55.122;35.582;2023-08-06T14:55:57;5.82;;;3.50;;
47758;SDS011;33520;55.122;35.582;2023-08-06T14:58:24;5.20;;;3.58;;
47758;SDS011;33520;55.122;35.582;2023-08-06T15:00:50;3.78;;;3.38;;
47758;SDS011;33520;55.122;35.582;2023-08-06T15:03:17;3.88;;;3.33;;
47758;SDS011;33520;55.122;35.582;2023-08-06T15:05:43;4.05;;;3.38;;
47758;SDS011;33520;55.122;35.582;2023-08-06T15:08:11;8.38;;;3.47;;
47758;SDS011;33520;55.122;35.582;2023-08-06T15:10:38;5.20;;;3.10;;
47758;SDS011;33520;55.122;35.582;2023-08-06T15:13:05;5.22;;;3.70;;
47758;SDS011;33520;55.122;35.582;2023-08-06T15:15:32;3.88;;;3.08;;
47758;SDS011;33520;55.122;35.582;2023-08-06T15:17:58;4.05;;;3.60;;
47758;SDS011;33520;55.122;35.582;2023-08-06T15:20:25;5.80;;;3.60;;
47758;SDS011;33520;55.122;35.582;2023-08-06T15:22:52;7.88;;;3.30;;
47758;SDS011;33520;55.122;35.582;2023-08-06T15:25:19;3.20;;;2.83;;
47758;SDS011;33520;55.122;35.582;2023-08-06T15:27:45;4.28;;;3.85;;
47758;SDS011;33520;55.122;35.582;2023-08-06T15:30:11;6.22;;;3.50;;
47758;SDS011;33520;55.122;35.582;2023-08-06T15:32:38;4.10;;;3.20;;
47758;SDS011;33520;55.122;35.582;2023-08-06T15:35:06;4.85;;;3.33;;
47758;SDS011;33520;55.122;35.582;2023-08-06T15:37:34;6.70;;;3.83;;
47758;SDS011;33520;55.122;35.582;2023-08-06T15:40:01;5.10;;;3.80;;
47758;SDS011;33520;55.122;35.582;2023-08-06T15:42:27;4.68;;;3.50;;
47758;SDS011;33520;55.122;35.582;2023-08-06T15:44:54;5.38;;;3.75;;
47758;SDS011;33520;55.122;35.582;2023-08-06T15:47:21;7.45;;;3.63;;
47758;SDS011;33520;55.122;35.582;2023-08-06T15:49:47;4.90;;;3.60;;
47758;SDS011;33520;55.122;35.582;2023-08-06T15:52:13;5.57;;;3.90;;
47758;SDS011;33520;55.122;35.582;2023-08-06T15:54:39;6.68;;;3.55;;
47758;SDS011;33520;55.122;35.582;2023-08-06T15:57:05;4.50;;;3.72;;
47758;SDS011;33520;55.122;35.582;2023-08-06T15:59:32;5.30;;;3.60;;
47758;SDS011;33520;55.122;35.582;2023-08-06T16:01:59;5.13;;;3.63;;
47758;SDS011;33520;55.122;35.582;2023-08-06T16:04:28;4.78;;;3.67;;
47758;SDS011;33520;55.122;35.582;2023-08-06T16:06:56;5.75;;;3.90;;
47758;SDS011;33520;55.122;35.582;2023-08-06T16:09:23;4.88;;;3.75;;
47758;SDS011;33520;55.122;35.582;2023-08-06T16:11:50;7.35;;;4.40;;
47758;SDS011;33520;55.122;35.582;2023-08-06T16:14:18;6.70;;;3.75;;
47758;SDS011;33520;55.122;35.582;2023-08-06T16:16:45;5.63;;;3.55;;
47758;SDS011;33520;55.122;35.582;2023-08-06T16:19:12;4.60;;;3.25;;
47758;SDS011;33520;55.122;35.582;2023-08-06T16:21:38;5.13;;;3.50;;
47758;SDS011;33520;55.122;35.582;2023-08-06T16:24:05;6.40;;;3.78;;
47758;SDS011;33520;55.122;35.582;2023-08-06T16:26:31;7.50;;;3.85;;
47758;SDS011;33520;55.122;35.582;2023-08-06T16:28:57;4.75;;;3.70;;
47758;SDS011;33520;55.122;35.582;2023-08-06T16:31:24;7.30;;;3.72;;
47758;SDS011;33520;55.122;35.582;2023-08-06T16:33:50;6.88;;;3.72;;
47758;SDS011;33520;55.122;35.582;2023-08-06T16:36:17;5.15;;;4.07;;
47758;SDS011;33520;55.122;35.582;2023-08-06T16:38:43;5.20;;;3.65;;
47758;SDS011;33520;55.122;35.582;2023-08-06T16:41:10;5.25;;;4.15;;
47758;SDS011;33520;55.122;35.582;2023-08-06T16:43:36;5.65;;;3.70;;
47758;SDS011;33520;55.122;35.582;2023-08-06T16:46:02;4.45;;;4.00;;
47758;SDS011;33520;55.122;35.582;2023-08-06T16:48:29;6.40;;;3.53;;
47758;SDS011;33520;55.122;35.582;2023-08-06T16:51:00;5.72;;;3.88;;
47758;SDS011;33520;55.122;35.582;2023-08-06T16:53:26;4.78;;;3.90;;
47758;SDS011;33520;55.122;35.582;2023-08-06T16:55:53;7.13;;;4.15;;
47758;SDS011;33520;55.122;35.582;2023-08-06T16:58:20;6.03;;;4.45;;
47758;SDS011;33520;55.122;35.582;2023-08-06T17:00:47;5.53;;;4.20;;
47758;SDS011;33520;55.122;35.582;2023-08-06T17:03:14;4.47;;;3.97;;
47758;SDS011;33520;55.122;35.582;2023-08-06T17:05:41;7.35;;;4.32;;
47758;SDS011;33520;55.122;35.582;2023-08-06T17:08:08;8.30;;;4.35;;
47758;SDS011;33520;55.122;35.582;2023-08-06T17:10:34;5.38;;;4.18;;
47758;SDS011;33520;55.122;35.582;2023-08-06T17:13:02;7.38;;;3.83;;
47758;SDS011;33520;55.122;35.582;2023-08-06T17:15:31;7.40;;;4.13;;
47758;SDS011;33520;55.122;35.582;2023-08-06T17:17:58;9.70;;;4.55;;
47758;SDS011;33520;55.122;35.582;2023-08-06T17:20:24;6.57;;;4.05;;
47758;SDS011;33520;55.122;35.582;2023-08-06T17:22:51;5.93;;;4.55;;
47758;SDS011;33520;55.122;35.582;2023-08-06T17:25:18;9.15;;;4.78;;
47758;SDS011;33520;55.122;35.582;2023-08-06T17:27:46;5.13;;;4.30;;
47758;SDS011;33520;55.122;35.582;2023-08-06T17:30:13;5.68;;;4.20;;
47758;SDS011;33520;55.122;35.582;2023-08-06T17:32:39;4.97;;;4.20;;
47758;SDS011;33520;55.122;35.582;2023-08-06T17:35:06;6.47;;;4.07;;
47758;SDS011;33520;55.122;35.582;2023-08-06T17:37:32;5.22;;;4.72;;
47758;SDS011;33520;55.122;35.582;2023-08-06T17:40:01;9.52;;;4.82;;
47758;SDS011;33520;55.122;35.582;2023-08-06T17:42:31;6.47;;;4.57;;
47758;SDS011;33520;55.122;35.582;2023-08-06T17:44:57;7.18;;;4.47;;
47758;SDS011;33520;55.122;35.582;2023-08-06T17:47:23;7.07;;;4.75;;
47758;SDS011;33520;55.122;35.582;2023-08-06T17:49:50;6.47;;;4.70;;
47758;SDS011;33520;55.122;35.582;2023-08-06T17:52:16;8.45;;;4.78;;
47758;SDS011;33520;55.122;35.582;2023-08-06T17:54:42;7.47;;;5.30;;
47758;SDS011;33520;55.122;35.582;2023-08-06T17:57:09;8.65;;;4.80;;
47758;SDS011;33520;55.122;35.582;2023-08-06T17:59:35;9.68;;;4.47;;
47758;SDS011;33520;55.122;35.582;2023-08-06T18:02:01;6.78;;;4.60;;
47758;SDS011;33520;55.122;35.582;2023-08-06T18:04:29;6.13;;;4.95;;
47758;SDS011;33520;55.122;35.582;2023-08-06T18:06:55;9.23;;;5.18;;
47758;SDS011;33520;55.122;35.582;2023-08-06T18:09:22;7.97;;;5.07;;
47758;SDS011;33520;55.122;35.582;2023-08-06T18:11:48;8.07;;;4.95;;
47758;SDS011;33520;55.122;35.582;2023-08-06T18:14:15;6.38;;;4.55;;
47758;SDS011;33520;55.122;35.582;2023-08-06T18:16:41;7.95;;;5.45;;
47758;SDS011;33520;55.122;35.582;2023-08-06T18:19:08;9.10;;;5.47;;
47758;SDS011;33520;55.122;35.582;2023-08-06T18:21:34;5.93;;;4.60;;
47758;SDS011;33520;55.122;35.582;2023-08-06T18:24:00;6.97;;;4.82;;
47758;SDS011;33520;55.122;35.582;2023-08-06T18:26:27;5.65;;;4.68;;
47758;SDS011;33520;55.122;35.582;2023-08-06T18:28:54;8.40;;;5.05;;
47758;SDS011;33520;55.122;35.582;2023-08-06T18:31:20;10.18;;;5.07;;
47758;SDS011;33520;55.122;35.582;2023-08-06T18:33:46;6.25;;;4.88;;
47758;SDS011;33520;55.122;35.582;2023-08-06T18:36:13;8.30;;;4.80;;
47758;SDS011;33520;55.122;35.582;2023-08-06T18:38:39;6.70;;;4.90;;
47758;SDS011;33520;55.122;35.582;2023-08-06T18:41:07;8.20;;;4.97;;
47758;SDS011;33520;55.122;35.582;2023-08-06T18:43:34;6.82;;;4.57;;
47758;SDS011;33520;55.122;35.582;2023-08-06T18:46:01;7.85;;;4.97;;
47758;SDS011;33520;55.122;35.582;2023-08-06T18:48:28;6.85;;;4.65;;
47758;SDS011;33520;55.122;35.582;2023-08-06T18:50:55;8.48;;;4.90;;
47758;SDS011;33520;55.122;35.582;2023-08-06T18:53:24;7.50;;;4.80;;
47758;SDS011;33520;55.122;35.582;2023-08-06T18:55:50;8.38;;;5.00;;
47758;SDS011;33520;55.122;35.582;2023-08-06T18:58:17;7.22;;;5.03;;
47758;SDS011;33520;55.122;35.582;2023-08-06T19:00:44;7.13;;;4.93;;
47758;SDS011;33520;55.122;35.582;2023-08-06T19:03:10;6.85;;;5.05;;
47758;SDS011;33520;55.122;35.582;2023-08-06T19:05:38;7.03;;;4.47;;
47758;SDS011;33520;55.122;35.582;2023-08-06T19:08:06;5.75;;;4.35;;
47758;SDS011;33520;55.122;35.582;2023-08-06T19:10:33;5.57;;;4.30;;
47758;SDS011;33520;55.122;35.582;2023-08-06T19:13:05;7.03;;;4.32;;
47758;SDS011;33520;55.122;35.582;2023-08-06T19:15:35;6.47;;;4.38;;
47758;SDS011;33520;55.122;35.582;2023-08-06T19:18:01;7.28;;;4.72;;
47758;SDS011;33520;55.122;35.582;2023-08-06T19:20:28;7.20;;;4.78;;
47758;SDS011;33520;55.122;35.582;2023-08-06T19:22:55;6.22;;;4.70;;
47758;SDS011;33520;55.122;35.582;2023-08-06T19:25:22;7.28;;;4.50;;
47758;SDS011;33520;55.122;35.582;2023-08-06T19:27:48;8.68;;;5.07;;
47758;SDS011;33520;55.122;35.582;2023-08-06T19:30:15;6.10;;;4.18;;
47758;SDS011;33520;55.122;35.582;2023-08-06T19:32:41;7.88;;;5.00;;
47758;SDS011;33520;55.122;35.582;2023-08-06T19:35:08;6.10;;;4.35;;
47758;SDS011;33520;55.122;35.582;2023-08-06T19:37:35;6.05;;;4.20;;
47758;SDS011;33520;55.122;35.582;2023-08-06T19:40:01;5.68;;;4.63;;
47758;SDS011;33520;55.122;35.582;2023-08-06T19:42:29;6.90;;;4.50;;
47758;SDS011;33520;55.122;35.582;2023-08-06T19:44:56;6.03;;;4.07;;
47758;SDS011;33520;55.122;35.582;2023-08-06T19:47:24;6.45;;;4.25;;
47758;SDS011;33520;55.122;35.582;2023-08-06T19:49:52;7.55;;;3.97;;
47758;SDS011;33520;55.122;35.582;2023-08-06T19:52:20;4.95;;;4.15;;
47758;SDS011;33520;55.122;35.582;2023-08-06T19:54:48;8.90;;;3.88;;
47758;SDS011;33520;55.122;35.582;2023-08-06T19:57:14;8.68;;;4.50;;
47758;SDS011;33520;55.122;35.582;2023-08-06T19:59:43;6.45;;;4.28;;
47758;SDS011;33520;55.122;35.582;2023-08-06T20:02:09;7.03;;;4.13;;
47758;SDS011;33520;55.122;35.582;2023-08-06T20:04:35;7.70;;;3.90;;
47758;SDS011;33520;55.122;35.582;2023-08-06T20:07:01;5.35;;;4.22;;
47758;SDS011;33520;55.122;35.582;2023-08-06T20:09:28;11.63;;;4.28;;
47758;SDS011;33520;55.122;35.582;2023-08-06T20:11:54;6.22;;;4.38;;
47758;SDS011;33520;55.122;35.582;2023-08-06T20:14:21;6.72;;;4.13;;
47758;SDS011;33520;55.122;35.582;2023-08-06T20:16:47;6.85;;;4.38;;
47758;SDS011;33520;55.122;35.582;2023-08-06T20:19:14;8.15;;;4.40;;
47758;SDS011;33520;55.122;35.582;2023-08-06T20:21:41;6.88;;;4.50;;
47758;SDS011;33520;55.122;35.582;2023-08-06T20:24:07;7.60;;;4.53;;
47758;SDS011;33520;55.122;35.582;2023-08-06T20:26:33;9.77;;;4.10;;
47758;SDS011;33520;55.122;35.582;2023-08-06T20:29:00;5.88;;;4.00;;
47758;SDS011;33520;55.122;35.582;2023-08-06T20:31:26;5.05;;;3.97;;
47758;SDS011;33520;55.122;35.582;2023-08-06T20:33:53;5.88;;;4.05;;
47758;SDS011;33520;55.122;35.582;2023-08-06T20:36:19;6.18;;;3.83;;
47758;SDS011;33520;55.122;35.582;2023-08-06T20:38:45;5.82;;;4.10;;
47758;SDS011;33520;55.122;35.582;2023-08-06T20:41:12;8.55;;;4.15;;
47758;SDS011;33520;55.122;35.582;2023-08-06T20:43:38;10.10;;;5.00;;
47758;SDS011;33520;55.122;35.582;2023-08-06T20:46:05;5.30;;;3.90;;
47758;SDS011;33520;55.122;35.582;2023-08-06T20:48:33;6.40;;;4.00;;
47758;SDS011;33520;55.122;35.582;2023-08-06T20:50:59;6.03;;;4.00;;
47758;SDS011;33520;55.122;35.582;2023-08-06T20:53:26;6.63;;;4.25;;
47758;SDS011;33520;55.122;35.582;2023-08-06T20:56:02;7.10;;;3.90;;
47758;SDS011;33520;55.122;35.582;2023-08-06T20:58:29;4.70;;;3.60;;
47758;SDS011;33520;55.122;35.582;2023-08-06T21:00:56;12.20;;;4.30;;
47758;SDS011;33520;55.122;35.582;2023-08-06T21:03:25;4.90;;;3.90;;
47758;SDS011;33520;55.122;35.582;2023-08-06T21:06:02;8.73;;;4.47;;
47758;SDS011;33520;55.122;35.582;2023-08-06T21:08:30;7.13;;;3.90;;
47758;SDS011;33520;55.122;35.582;2023-08-06T21:10:58;5.97;;;3.42;;
47758;SDS011;33520;55.122;35.582;2023-08-06T21:13:25;7.45;;;3.60;;
47758;SDS011;33520;55.122;35.582;2023-08-06T21:15:55;7.70;;;3.35;;
47758;SDS011;33520;55.122;35.582;2023-08-06T21:18:27;6.07;;;3.83;;
47758;SDS011;33520;55.122;35.582;2023-08-06T21:21:00;6.85;;;3.83;;
47758;SDS011;33520;55.122;35.582;2023-08-06T21:23:27;7.50;;;3.75;;
47758;SDS011;33520;55.122;35.582;2023-08-06T21:26:02;6.25;;;3.88;;
47758;SDS011;33520;55.122;35.582;2023-08-06T21:28:30;5.95;;;3.80;;
47758;SDS011;33520;55.122;35.582;2023-08-06T21:30:57;4.60;;;3.55;;
47758;SDS011;33520;55.122;35.582;2023-08-06T21:33:25;9.00;;;3.45;;
47758;SDS011;33520;55.122;35.582;2023-08-06T21:35:53;5.43;;;4.10;;
47758;SDS011;33520;55.122;35.582;2023-08-06T21:38:23;9.30;;;3.70;;
47758;SDS011;33520;55.122;35.582;2023-08-06T21:40:50;5.93;;;3.58;;
47758;SDS011;33520;55.122;35.582;2023-08-06T21:43:16;6.43;;;4.22;;
47758;SDS011;33520;55.122;35.582;2023-08-06T21:45:42;5.22;;;3.42;;
47758;SDS011;33520;55.122;35.582;2023-08-06T21:48:08;6.07;;;3.95;;
47758;SDS011;33520;55.122;35.582;2023-08-06T21:50:35;8.23;;;3.75;;
47758;SDS011;33520;55.122;35.582;2023-08-06T21:53:01;11.13;;;4.20;;
47758;SDS011;33520;55.122;35.582;2023-08-06T21:55:31;5.88;;;3.75;;
47758;SDS011;33520;55.122;35.582;2023-08-06T21:57:58;9.65;;;4.07;;
47758;SDS011;33520;55.122;35.582;2023-08-06T22:00:24;8.30;;;3.88;;
47758;SDS011;33520;55.122;35.582;2023-08-06T22:02:50;8.50;;;3.70;;
47758;SDS011;33520;55.122;35.582;2023-08-06T22:05:17;7.38;;;3.55;;
47758;SDS011;33520;55.122;35.582;2023-08-06T22:07:43;8.25;;;4.15;;
47758;SDS011;33520;55.122;35.582;2023-08-06T22:10:10;6.03;;;3.53;;
47758;SDS011;33520;55.122;35.582;2023-08-06T22:12:36;5.32;;;3.47;;
47758;SDS011;33520;55.122;35.582;2023-08-06T22:15:02;5.57;;;3.47;;
47758;SDS011;33520;55.122;35.582;2023-08-06T22:17:29;5.32;;;3.55;;
47758;SDS011;33520;55.122;35.582;2023-08-06T22:19:57;5.60;;;3.90;;
47758;SDS011;33520;55.122;35.582;2023-08-06T22:22:23;7.07;;;3.63;;
47758;SDS011;33520;55.122;35.582;2023-08-06T22:24:49;6.88;;;3.60;;
47758;SDS011;33520;55.122;35.582;2023-08-06T22:27:16;6.43;;;3.58;;
47758;SDS011;33520;55.122;35.582;2023-08-06T22:29:42;5.68;;;3.25;;
47758;SDS011;33520;55.122;35.582;2023-08-06T22:32:09;6.78;;;3.78;;
47758;SDS011;33520;55.122;35.582;2023-08-06T22:34:35;5.93;;;3.35;;
47758;SDS011;33520;55.122;35.582;2023-08-06T22:37:02;6.32;;;3.70;;
47758;SDS011;33520;55.122;35.582;2023-08-06T22:39:29;7.10;;;3.75;;
47758;SDS011;33520;55.122;35.582;2023-08-06T22:41:55;7.65;;;3.63;;
47758;SDS011;33520;55.122;35.582;2023-08-06T22:44:21;8.68;;;3.67;;
47758;SDS011;33520;55.122;35.582;2023-08-06T22:46:48;9.48;;;3.95;;
47758;SDS011;33520;55.122;35.582;2023-08-06T22:49:14;3.65;;;3.25;;
47758;SDS011;33520;55.122;35.582;2023-08-06T22:51:41;5.65;;;3.10;;
47758;SDS011;33520;55.122;35.582;2023-08-06T22:54:07;6.53;;;3.22;;
47758;SDS011;33520;55.122;35.582;2023-08-06T22:56:33;5.45;;;3.70;;
47758;SDS011;33520;55.122;35.582;2023-08-06T22:59:00;7.40;;;3.15;;
47758;SDS011;33520;55.122;35.582;2023-08-06T23:01:26;7.88;;;4.03;;
47758;SDS011;33520;55.122;35.582;2023-08-06T23:03:53;8.48;;;3.67;;
47758;SDS011;33520;55.122;35.582;2023-08-06T23:06:19;5.43;;;2.88;;
47758;SDS011;33520;55.122;35.582;2023-08-06T23:08:46;7.97;;;3.50;;
47758;SDS011;33520;55.122;35.582;2023-08-06T23:11:14;5.47;;;3.28;;
47758;SDS011;33520;55.122;35.582;2023-08-06T23:13:40;6.55;;;3.60;;
47758;SDS011;33520;55.122;35.582;2023-08-06T23:16:07;5.15;;;3.17;;
47758;SDS011;33520;55.122;35.582;2023-08-06T23:18:33;6.95;;;3.38;;
47758;SDS011;33520;55.122;35.582;2023-08-06T23:21:00;4.95;;;3.40;;
47758;SDS011;33520;55.122;35.582;2023-08-06T23:23:26;6.03;;;3.22;;
47758;SDS011;33520;55.122;35.582;2023-08-06T23:25:52;4.70;;;3.13;;
47758;SDS011;33520;55.122;35.582;2023-08-06T23:28:18;5.13;;;3.25;;
47758;SDS011;33520;55.122;35.582;2023-08-06T23:30:45;4.38;;;2.95;;
47758;SDS011;33520;55.122;35.582;2023-08-06T23:33:16;7.03;;;3.28;;
47758;SDS011;33520;55.122;35.582;2023-08-06T23:35:42;5.32;;;3.05;;
47758;SDS011;33520;55.122;35.582;2023-08-06T23:38:09;7.22;;;3.47;;
47758;SDS011;33520;55.122;35.582;2023-08-06T23:40:35;5.28;;;3.30;;
47758;SDS011;33520;55.122;35.582;2023-08-06T23:43:01;6.63;;;3.15;;
47758;SDS011;33520;55.122;35.582;2023-08-06T23:45:27;6.82;;;3.20;;
47758;SDS011;33520;55.122;35.582;2023-08-06T23:47:54;7.65;;;3.58;;
47758;SDS011;33520;55.122;35.582;2023-08-06T23:50:20;7.90;;;3.65;;
47758;SDS011;33520;55.122;35.582;2023-08-06T23:52:47;8.07;;;3.50;;
47758;SDS011;33520;55.122;35.582;2023-08-06T23:55:14;4.70;;;2.97;;
47758;SDS011;33520;55.122;35.582;2023-08-06T23:57:40;7.63;;;3.45;;
